Time;durP1;ratioP1;P1;durP2;ratioP2;P2;SDS_P1;SDS_P2;PMS_P1;PMS_P2;Temp;Humidity;BMP_temperature;BMP_pressure;BME280_temperature;BME280_humidity;BME280_pressure;Samples;Min_cycle;Max_cycle;Signal;HPM_P1;HPM_P2
2022/01/18 00:01:58;;;;;;;;;;;;;;;6.43;42.97;100538.75;4465931;32;33651;-64
2022/01/18 00:04:27;;;;;;;;;;;;;;;6.10;40.79;100541.97;4462119;32;33628;-65
2022/01/18 00:06:55;;;;;;;;;;;;;;;6.04;43.65;100532.47;4464476;32;35299;-64
2022/01/18 00:09:28;;;;;;;;;;;;;;;6.56;39.54;100529.28;4464628;32;34268;-63
2022/01/18 00:14:55;;;;;;;;;;;;;;;5.07;44.83;100546.22;4442213;32;33286;-66
2022/01/18 00:17:40;;;;;;;;;;;;;;;5.30;43.10;100537.31;4465502;32;33685;-66
2022/01/18 00:20:15;;;;;;;;;;;;;;;4.86;44.47;100549.69;4462823;32;34426;-67
2022/01/18 00:22:43;;;;;;;;;;;;;;;5.65;43.48;100550.06;4465602;32;34125;-65
2022/01/18 00:25:10;;;;;;;;;;;;;;;5.78;42.18;100559.28;4466270;32;33478;-65
2022/01/18 00:27:38;;;;;;;;;;;;;;;5.08;42.53;100566.50;4461820;32;34326;-66
2022/01/18 00:30:29;;;;;;;;;;;;;;;5.45;43.42;100562.37;4460458;32;34397;-65
2022/01/18 00:33:05;;;;;;;;;;;;;;;5.46;41.79;100560.59;4458398;32;33592;-65
2022/01/18 00:35:35;;;;;;;;;;;;;;;5.41;43.67;100568.72;4464576;32;34032;-66
2022/01/18 00:38:14;;;;;;;;;;;;;;;6.11;43.02;100588.03;4462448;31;34400;-67
2022/01/18 00:40:42;;;;;;;;;;;;;;;5.59;43.23;100591.03;4461327;32;33687;-66
2022/01/18 00:43:09;;;;;;;;;;;;;;;5.43;42.63;100598.75;4463942;32;34290;-66
2022/01/18 00:45:37;;;;;;;;;;;;;;;5.38;43.10;100593.59;4463063;32;33823;-66
2022/01/18 00:48:05;;;;;;;;;;;;;;;5.03;44.42;100583.50;4462569;32;34080;-65
2022/01/18 00:50:33;;;;;;;;;;;;;;;5.42;43.06;100585.53;4463396;32;34092;-66
2022/01/18 00:53:05;;;;;;;;;;;;;;;6.12;42.17;100597.72;4462769;32;33934;-65
2022/01/18 00:55:36;;;;;;;;;;;;;;;5.34;45.23;100592.00;4462875;32;31742;-65
2022/01/18 00:58:03;;;;;;;;;;;;;;;4.88;43.81;100592.94;4462495;32;34005;-65
2022/01/18 01:00:31;;;;;;;;;;;;;;;4.62;43.70;100589.47;4462378;32;33996;-66
2022/01/18 01:02:58;;;;;;;;;;;;;;;4.70;45.44;100594.47;4464530;32;34215;-65
2022/01/18 01:05:26;;;;;;;;;;;;;;;5.00;45.50;100604.84;4465717;32;33545;-65
2022/01/18 01:07:54;;;;;;;;;;;;;;;4.58;47.60;100617.00;4466086;32;33603;-64
2022/01/18 01:10:31;;;;;;;;;;;;;;;4.02;47.19;100613.72;4464045;32;33081;-64
2022/01/18 01:12:58;;;;;;;;;;;;;;;4.28;46.20;100618.09;4464875;32;34501;-65
2022/01/18 01:15:28;;;;;;;;;;;;;;;5.05;44.55;100629.44;4453641;32;33528;-65
2022/01/18 01:34:46;;;;;;;;;;;;;;;6.27;42.13;100645.78;4467725;32;34048;-66
2022/01/18 01:45:27;;;;;;;;;;;;;;;5.53;43.52;100645.25;4463761;32;34867;-65
2022/01/18 01:47:55;;;;;;;;;;;;;;;5.39;44.78;100639.59;4458906;32;33294;-67
2022/01/18 01:50:24;;;;;;;;;;;;;;;4.89;45.82;100637.09;4468033;32;35297;-65
2022/01/18 01:52:54;;;;;;;;;;;;;;;4.52;46.82;100634.91;4464504;32;34895;-65
2022/01/18 01:55:22;;;;;;;;;;;;;;;4.76;46.84;100628.72;4467174;32;33611;-65
2022/01/18 01:57:49;;;;;;;;;;;;;;;4.79;45.90;100638.38;4466647;32;33159;-67
2022/01/18 02:00:18;;;;;;;;;;;;;;;5.03;45.61;100637.44;4464424;32;33030;-65
2022/01/18 02:02:46;;;;;;;;;;;;;;;4.93;46.96;100638.72;4460724;32;34061;-65
2022/01/18 02:05:14;;;;;;;;;;;;;;;4.79;46.49;100638.38;4462668;32;34363;-65
2022/01/18 02:07:41;;;;;;;;;;;;;;;4.97;46.95;100652.72;4467622;32;33512;-65
2022/01/18 02:10:10;;;;;;;;;;;;;;;5.30;47.00;100654.13;4470056;32;34937;-65
2022/01/18 02:12:37;;;;;;;;;;;;;;;4.60;47.09;100670.00;4469050;32;34281;-66
2022/01/18 02:15:16;;;;;;;;;;;;;;;5.33;45.58;100669.06;4467880;32;35592;-66
2022/01/18 02:23:25;;;;;;;;;;;;;;;4.92;46.99;100667.97;4467231;32;35385;-65
2022/01/18 02:25:53;;;;;;;;;;;;;;;4.86;46.73;100667.25;4470321;32;35491;-65
2022/01/18 02:28:21;;;;;;;;;;;;;;;5.03;48.34;100668.41;4466445;32;33334;-66
2022/01/18 02:30:48;;;;;;;;;;;;;;;4.98;46.70;100673.06;4467603;32;34861;-66
2022/01/18 02:33:16;;;;;;;;;;;;;;;5.75;44.52;100666.50;4464405;32;35403;-66
2022/01/18 02:35:44;;;;;;;;;;;;;;;5.67;43.64;100657.13;4464158;32;35539;-67
2022/01/18 02:38:11;;;;;;;;;;;;;;;5.52;44.88;100672.75;4468892;32;33416;-65
2022/01/18 02:40:43;;;;;;;;;;;;;;;4.78;46.78;100665.78;4462299;32;34189;-67
2022/01/18 02:45:57;;;;;;;;;;;;;;;5.81;43.79;100668.03;4467253;32;35462;-66
2022/01/18 02:48:25;;;;;;;;;;;;;;;6.17;42.86;100678.13;4468017;32;32125;-66
2022/01/18 02:50:52;;;;;;;;;;;;;;;5.47;45.17;100668.53;4466276;32;35604;-66
2022/01/18 02:53:20;;;;;;;;;;;;;;;5.68;44.89;100683.63;4468196;32;34318;-67
2022/01/18 02:55:51;;;;;;;;;;;;;;;5.79;42.70;100681.41;4468478;32;34502;-66
2022/01/18 02:58:28;;;;;;;;;;;;;;;6.05;43.47;100682.16;4467053;32;33266;-65
2022/01/18 03:03:33;;;;;;;;;;;;;;;6.54;42.81;100694.25;4469541;32;33743;-65
2022/01/18 03:06:02;;;;;;;;;;;;;;;6.55;42.58;100703.12;4459841;32;32693;-65
2022/01/18 03:08:29;;;;;;;;;;;;;;;6.45;41.66;100707.06;4465644;32;35946;-64
2022/01/18 03:10:57;;;;;;;;;;;;;;;6.71;43.06;100706.84;4461921;32;35344;-65
2022/01/18 03:13:24;;;;;;;;;;;;;;;6.92;41.11;100717.47;4465033;32;33989;-65
2022/01/18 03:15:52;;;;;;;;;;;;;;;6.77;41.40;100716.31;4460156;32;33036;-65
2022/01/18 03:18:19;;;;;;;;;;;;;;;7.08;39.90;100722.97;4461100;32;34190;-65
2022/01/18 03:20:47;;;;;;;;;;;;;;;6.60;41.22;100738.34;4461041;32;35145;-65
2022/01/18 03:23:18;;;;;;;;;;;;;;;6.86;40.04;100736.34;4465264;32;34850;-65
2022/01/18 03:25:58;;;;;;;;;;;;;;;6.91;40.61;100742.34;4464635;32;33605;-65
2022/01/18 03:28:26;;;;;;;;;;;;;;;7.57;39.07;100740.22;4462601;32;34260;-65
2022/01/18 03:30:54;;;;;;;;;;;;;;;7.03;40.22;100752.47;4464672;32;34853;-65
2022/01/18 03:33:22;;;;;;;;;;;;;;;7.53;39.96;100756.44;4464658;32;34439;-65
2022/01/18 03:35:50;;;;;;;;;;;;;;;7.51;39.06;100759.16;4463900;32;33039;-64
2022/01/18 03:38:19;;;;;;;;;;;;;;;7.30;40.29;100773.47;4464742;32;33122;-65
2022/01/18 03:40:46;;;;;;;;;;;;;;;7.70;40.86;100767.16;4462653;32;34410;-65
2022/01/18 03:43:14;;;;;;;;;;;;;;;7.09;41.64;100776.13;4463433;32;32963;-65
2022/01/18 03:45:44;;;;;;;;;;;;;;;7.99;38.45;100780.94;4461315;32;34396;-65
2022/01/18 03:48:15;;;;;;;;;;;;;;;8.17;38.18;100774.72;4461078;32;33654;-65
2022/01/18 03:50:43;;;;;;;;;;;;;;;7.81;38.69;100780.00;4460402;32;33836;-65
2022/01/18 03:53:11;;;;;;;;;;;;;;;8.13;38.28;100783.81;4461972;32;34880;-66
2022/01/18 03:55:39;;;;;;;;;;;;;;;8.48;37.02;100773.25;4462636;32;34426;-68
2022/01/18 03:58:07;;;;;;;;;;;;;;;8.69;36.62;100777.50;4464692;32;33324;-66
2022/01/18 04:00:34;;;;;;;;;;;;;;;8.85;35.98;100789.13;4464417;32;33983;-66
2022/01/18 04:03:02;;;;;;;;;;;;;;;8.36;37.79;100790.69;4463980;32;35230;-66
2022/01/18 04:05:30;;;;;;;;;;;;;;;8.93;35.82;100793.22;4462167;32;35080;-66
2022/01/18 04:07:58;;;;;;;;;;;;;;;8.83;37.16;100793.69;4465485;32;32295;-66
2022/01/18 04:10:25;;;;;;;;;;;;;;;9.30;35.26;100784.16;4464168;32;34043;-66
2022/01/18 04:12:55;;;;;;;;;;;;;;;9.48;34.62;100795.69;4462254;32;35826;-65
2022/01/18 04:15:23;;;;;;;;;;;;;;;9.17;35.75;100799.97;4465166;32;33384;-66
2022/01/18 04:18:08;;;;;;;;;;;;;;;8.80;36.03;100796.53;4461238;32;32040;-65
2022/01/18 04:28:53;;;;;;;;;;;;;;;8.89;36.12;100816.53;4460680;32;32743;-66
2022/01/18 04:31:21;;;;;;;;;;;;;;;9.22;35.18;100810.41;4465109;32;33930;-65
2022/01/18 04:33:48;;;;;;;;;;;;;;;9.14;35.15;100809.94;4462311;32;33042;-65
2022/01/18 04:36:16;;;;;;;;;;;;;;;9.42;34.51;100814.72;4459313;32;33928;-66
2022/01/18 04:38:44;;;;;;;;;;;;;;;8.86;35.86;100820.25;4464178;32;32963;-67
2022/01/18 04:41:15;;;;;;;;;;;;;;;8.88;35.22;100814.81;4464175;32;34586;-66
2022/01/18 04:49:14;;;;;;;;;;;;;;;8.43;37.34;100837.50;4462390;32;32048;-67
2022/01/18 04:51:44;;;;;;;;;;;;;;;8.90;35.87;100842.31;4463218;32;32598;-66
2022/01/18 04:54:12;;;;;;;;;;;;;;;8.21;36.92;100844.78;4460847;32;34043;-66
2022/01/18 04:59:09;;;;;;;;;;;;;;;8.92;35.48;100851.09;4462791;32;32071;-66
2022/01/18 05:01:37;;;;;;;;;;;;;;;8.65;36.43;100860.47;4463549;32;34713;-67
2022/01/18 05:04:05;;;;;;;;;;;;;;;8.69;37.72;100851.38;4461418;32;34214;-66
2022/01/18 05:06:34;;;;;;;;;;;;;;;8.59;36.78;100851.81;4464377;32;33944;-67
2022/01/18 05:09:07;;;;;;;;;;;;;;;8.84;36.89;100843.47;4464572;32;35412;-66
2022/01/18 05:11:50;;;;;;;;;;;;;;;9.17;35.22;100845.38;4459811;32;33510;-67
2022/01/18 05:16:53;;;;;;;;;;;;;;;9.16;35.24;100866.81;4463926;32;35258;-67
2022/01/18 05:25:00;;;;;;;;;;;;;;;9.14;37.13;100858.03;4465088;32;33432;-67
2022/01/18 05:27:28;;;;;;;;;;;;;;;9.02;35.68;100851.47;4458246;32;34467;-65
2022/01/18 05:29:56;;;;;;;;;;;;;;;8.67;37.34;100843.47;4464346;32;33167;-65
2022/01/18 05:32:23;;;;;;;;;;;;;;;9.17;37.68;100857.87;4461817;32;34975;-65
2022/01/18 05:34:51;;;;;;;;;;;;;;;8.28;37.10;100863.09;4464490;32;33983;-65
2022/01/18 05:37:18;;;;;;;;;;;;;;;8.22;38.03;100870.50;4462686;32;33045;-64
2022/01/18 05:39:45;;;;;;;;;;;;;;;8.40;37.16;100877.66;4462887;32;33555;-64
2022/01/18 05:42:13;;;;;;;;;;;;;;;8.83;36.86;100887.13;4464158;32;35215;-64
2022/01/18 05:44:40;;;;;;;;;;;;;;;9.11;36.16;100891.09;4462910;32;32913;-65
2022/01/18 05:47:07;;;;;;;;;;;;;;;8.68;37.21;100890.56;4466220;32;35207;-64
2022/01/18 05:49:35;;;;;;;;;;;;;;;9.17;35.67;100895.25;4465473;32;32799;-64
2022/01/18 05:52:02;;;;;;;;;;;;;;;8.56;38.01;100900.00;4464924;32;34963;-66
2022/01/18 05:54:30;;;;;;;;;;;;;;;8.93;37.16;100906.25;4464134;32;35036;-66
2022/01/18 05:56:57;;;;;;;;;;;;;;;8.88;36.81;100902.06;4464782;32;34062;-65
2022/01/18 05:59:34;;;;;;;;;;;;;;;8.37;38.92;100899.97;4465625;32;33427;-65
2022/01/18 06:02:13;;;;;;;;;;;;;;;8.49;38.57;100908.37;4464742;32;33757;-64
2022/01/18 06:07:29;;;;;;;;;;;;;;;9.12;36.30;100899.97;4465130;32;34741;-64
2022/01/18 06:09:56;;;;;;;;;;;;;;;8.57;37.21;100909.75;4465927;32;33209;-64
2022/01/18 06:12:24;;;;;;;;;;;;;;;8.08;38.29;100924.47;4465603;32;33190;-64
2022/01/18 06:14:51;;;;;;;;;;;;;;;7.75;39.67;100917.06;4466409;32;34123;-64
2022/01/18 06:17:19;;;;;;;;;;;;;;;7.83;41.18;100917.59;4463228;32;34114;-64
2022/01/18 06:19:47;;;;;;;;;;;;;;;7.86;40.84;100920.09;4465417;32;33302;-64
2022/01/18 06:22:15;;;;;;;;;;;;;;;7.75;40.06;100918.87;4462790;32;34011;-64
2022/01/18 06:24:42;;;;;;;;;;;;;;;8.00;39.08;100922.16;4463609;32;33755;-64
2022/01/18 06:27:10;;;;;;;;;;;;;;;8.55;37.56;100910.78;4464107;32;33671;-64
2022/01/18 06:29:37;;;;;;;;;;;;;;;8.39;38.28;100915.97;4466214;32;33301;-64
2022/01/18 06:32:05;;;;;;;;;;;;;;;7.87;38.48;100913.00;4464000;32;34049;-64
2022/01/18 06:34:33;;;;;;;;;;;;;;;8.61;37.86;100910.47;4465061;32;34236;-69
2022/01/18 06:37:00;;;;;;;;;;;;;;;8.49;38.07;100917.25;4465195;32;35335;-63
2022/01/18 06:39:28;;;;;;;;;;;;;;;8.36;38.00;100906.25;4464789;32;34049;-63
2022/01/18 06:41:56;;;;;;;;;;;;;;;7.07;40.94;100908.47;4465734;32;34126;-63
2022/01/18 06:44:24;;;;;;;;;;;;;;;7.39;40.99;100914.22;4465278;32;33657;-63
2022/01/18 06:46:52;;;;;;;;;;;;;;;7.32;42.37;100920.72;4463606;32;34031;-65
2022/01/18 06:49:19;;;;;;;;;;;;;;;7.68;40.87;100934.28;4462992;32;34149;-65
2022/01/18 06:51:47;;;;;;;;;;;;;;;7.82;40.35;100944.31;4461951;32;34264;-65
2022/01/18 06:54:17;;;;;;;;;;;;;;;7.45;41.44;100943.25;4463736;32;33663;-65
2022/01/18 06:56:48;;;;;;;;;;;;;;;8.02;40.46;100943.41;4464865;32;35214;-65
2022/01/18 06:59:16;;;;;;;;;;;;;;;8.17;39.88;100940.06;4461623;32;33439;-65
2022/01/18 07:01:43;;;;;;;;;;;;;;;7.66;41.22;100952.13;4465840;32;33748;-64
2022/01/18 07:04:11;;;;;;;;;;;;;;;8.39;39.25;100940.84;4465140;32;34313;-65
2022/01/18 07:06:38;;;;;;;;;;;;;;;8.12;41.33;100955.41;4462244;32;32254;-65
2022/01/18 07:09:05;;;;;;;;;;;;;;;8.83;38.66;100948.53;4464677;32;33257;-65
2022/01/18 07:11:33;;;;;;;;;;;;;;;8.74;39.86;100948.13;4466514;32;34810;-65
2022/01/18 07:14:01;;;;;;;;;;;;;;;9.02;38.15;100940.50;4464959;32;35470;-65
2022/01/18 07:16:28;;;;;;;;;;;;;;;10.61;35.08;100933.06;4465203;32;35023;-65
2022/01/18 07:18:55;;;;;;;;;;;;;;;11.63;33.57;100939.66;4464701;32;31838;-63
2022/01/18 07:21:23;;;;;;;;;;;;;;;11.43;33.68;100932.81;4465055;32;34127;-63
2022/01/18 07:23:52;;;;;;;;;;;;;;;11.06;35.50;100942.13;4464177;32;34383;-63
2022/01/18 07:26:20;;;;;;;;;;;;;;;10.09;35.84;100934.09;4465994;32;33709;-64
2022/01/18 07:28:48;;;;;;;;;;;;;;;11.04;34.00;100942.19;4465733;32;34390;-63
2022/01/18 07:31:15;;;;;;;;;;;;;;;11.85;33.52;100937.41;4467120;32;35288;-64
2022/01/18 07:33:42;;;;;;;;;;;;;;;11.93;32.85;100936.06;4465479;32;33182;-65
2022/01/18 07:36:10;;;;;;;;;;;;;;;10.33;34.64;100931.91;4465090;32;33123;-64
2022/01/18 07:38:37;;;;;;;;;;;;;;;10.29;35.17;100930.38;4461921;32;133940;-64
2022/01/18 07:41:05;;;;;;;;;;;;;;;10.39;34.76;100926.22;4467051;32;33892;-64
2022/01/18 07:43:32;;;;;;;;;;;;;;;10.69;36.38;100936.19;4465625;32;35444;-64
2022/01/18 07:46:00;;;;;;;;;;;;;;;9.79;36.37;100934.78;4467073;32;34489;-64
2022/01/18 07:48:27;;;;;;;;;;;;;;;8.94;38.38;100942.66;4465269;32;33061;-64
2022/01/18 07:50:55;;;;;;;;;;;;;;;9.93;37.26;100938.53;4464250;32;34788;-63
2022/01/18 07:53:22;;;;;;;;;;;;;;;11.24;34.35;100941.06;4466605;32;34034;-63
2022/01/18 07:55:49;;;;;;;;;;;;;;;10.21;35.95;100954.84;4467075;32;35399;-64
2022/01/18 07:58:17;;;;;;;;;;;;;;;9.96;36.20;100974.00;4466605;32;34198;-64
2022/01/18 08:00:45;;;;;;;;;;;;;;;10.53;34.59;100971.00;4478271;32;32525;-64
2022/01/18 08:03:13;;;;;;;;;;;;;;;10.85;35.01;100979.91;4464464;32;34233;-64
2022/01/18 08:05:40;;;;;;;;;;;;;;;10.40;35.55;100988.63;4467421;32;33614;-64
2022/01/18 08:08:09;;;;;;;;;;;;;;;10.46;35.94;100986.53;4467432;32;34466;-64
2022/01/18 08:10:36;;;;;;;;;;;;;;;11.33;34.13;100986.09;4467586;32;34182;-64
2022/01/18 08:13:04;;;;;;;;;;;;;;;11.04;34.79;100982.37;4465955;32;34390;-64
2022/01/18 08:15:43;;;;;;;;;;;;;;;11.19;34.57;100986.00;4465457;32;33711;-64
2022/01/18 08:18:11;;;;;;;;;;;;;;;10.11;35.38;100990.16;4466061;32;33138;-64
2022/01/18 08:20:39;;;;;;;;;;;;;;;8.80;38.00;101001.22;4467368;32;33972;-64
2022/01/18 08:23:06;;;;;;;;;;;;;;;9.24;38.21;101006.19;4465844;32;34041;-64
2022/01/18 08:25:35;;;;;;;;;;;;;;;8.95;39.01;101015.63;4464600;32;34244;-64
2022/01/18 08:28:02;;;;;;;;;;;;;;;9.79;37.54;101039.06;4466503;32;33254;-64
2022/01/18 08:30:29;;;;;;;;;;;;;;;12.28;33.14;101039.44;4463510;32;34375;-64
2022/01/18 08:32:57;;;;;;;;;;;;;;;12.11;33.07;101044.97;4466533;32;34273;-64
2022/01/18 08:35:25;;;;;;;;;;;;;;;13.12;31.29;101052.06;4467169;32;32851;-64
2022/01/18 08:37:53;;;;;;;;;;;;;;;11.51;33.92;101044.94;4465661;32;34115;-64
2022/01/18 08:40:20;;;;;;;;;;;;;;;12.02;32.78;101043.72;4463685;32;35292;-64
2022/01/18 08:42:48;;;;;;;;;;;;;;;11.78;33.87;101051.38;4466074;32;36468;-64
2022/01/18 08:45:15;;;;;;;;;;;;;;;14.60;29.11;101051.09;4465746;32;35793;-64
2022/01/18 08:47:47;;;;;;;;;;;;;;;13.66;29.76;101056.66;4462028;32;33946;-65
2022/01/18 08:50:17;;;;;;;;;;;;;;;13.22;30.96;101060.41;4464519;32;32536;-65
2022/01/18 08:52:46;;;;;;;;;;;;;;;13.71;30.40;101067.97;4466026;32;34226;-64
2022/01/18 08:55:13;;;;;;;;;;;;;;;14.19;29.36;101069.16;4466963;32;33982;-65
2022/01/18 08:57:40;;;;;;;;;;;;;;;11.64;33.24;101065.56;4466732;32;34583;-64
2022/01/18 09:00:10;;;;;;;;;;;;;;;12.62;32.07;101074.97;4465745;32;35705;-64
2022/01/18 09:02:38;;;;;;;;;;;;;;;12.61;32.78;101073.22;4465841;32;35698;-64
2022/01/18 09:05:05;;;;;;;;;;;;;;;11.94;32.89;101070.16;4467353;32;33899;-64
2022/01/18 09:07:34;;;;;;;;;;;;;;;11.83;33.29;101084.16;4464533;32;33641;-64
2022/01/18 09:10:06;;;;;;;;;;;;;;;12.47;33.55;101086.66;4466440;32;34214;-64
2022/01/18 09:12:33;;;;;;;;;;;;;;;12.13;32.34;101088.69;4463773;32;34377;-64
2022/01/18 09:15:01;;;;;;;;;;;;;;;10.64;36.67;101075.66;4463185;32;34442;-64
2022/01/18 09:17:29;;;;;;;;;;;;;;;11.29;34.58;101088.19;4465015;32;33301;-64
2022/01/18 09:19:56;;;;;;;;;;;;;;;13.39;30.71;101086.25;4465481;32;35758;-64
2022/01/18 09:22:24;;;;;;;;;;;;;;;13.45;30.93;101107.31;4464820;32;32908;-64
2022/01/18 09:24:51;;;;;;;;;;;;;;;13.12;31.00;101104.97;4466448;32;33963;-64
2022/01/18 09:27:19;;;;;;;;;;;;;;;14.73;28.37;101094.19;4462046;32;32685;-64
2022/01/18 09:29:46;;;;;;;;;;;;;;;14.39;28.30;101100.09;4464840;32;33496;-64
2022/01/18 09:32:14;;;;;;;;;;;;;;;15.04;28.46;101117.16;4464793;32;34227;-64
2022/01/18 09:34:41;;;;;;;;;;;;;;;16.89;24.82;101122.09;4465303;32;34434;-64
2022/01/18 09:37:09;;;;;;;;;;;;;;;15.54;26.85;101118.00;4463819;32;33360;-64
2022/01/18 09:39:36;;;;;;;;;;;;;;;13.40;29.86;101121.09;4464618;32;35607;-64
2022/01/18 09:42:04;;;;;;;;;;;;;;;13.16;30.92;101123.50;4465233;32;35414;-64
2022/01/18 09:44:32;;;;;;;;;;;;;;;11.35;33.88;101120.00;4461868;32;33941;-64
2022/01/18 09:47:00;;;;;;;;;;;;;;;12.04;32.67;101118.78;4466285;32;33352;-64
2022/01/18 09:49:27;;;;;;;;;;;;;;;10.99;36.17;101117.56;4465781;32;34388;-65
2022/01/18 09:51:55;;;;;;;;;;;;;;;12.42;32.02;101121.81;4465827;32;32907;-65
2022/01/18 09:54:23;;;;;;;;;;;;;;;10.86;34.59;101123.59;4465312;32;34666;-65
2022/01/18 09:56:50;;;;;;;;;;;;;;;10.53;34.54;101109.31;4464650;32;32242;-65
2022/01/18 09:59:18;;;;;;;;;;;;;;;10.91;35.01;101105.47;4464129;32;35049;-64
2022/01/18 10:01:45;;;;;;;;;;;;;;;10.44;35.68;101106.19;4464178;32;34431;-66
2022/01/18 10:04:24;;;;;;;;;;;;;;;10.30;35.54;101105.16;4463665;32;34025;-65
2022/01/18 10:06:56;;;;;;;;;;;;;;;9.64;36.53;101098.66;4466678;32;32883;-65
2022/01/18 10:09:24;;;;;;;;;;;;;;;9.42;38.61;101093.47;4457954;32;34177;-64
2022/01/18 10:12:11;;;;;;;;;;;;;;;9.84;36.05;101094.13;4463077;32;35835;-65
2022/01/18 10:14:43;;;;;;;;;;;;;;;11.63;33.58;101093.34;4464149;32;34930;-66
2022/01/18 10:17:10;;;;;;;;;;;;;;;12.92;30.83;101090.13;4465568;32;33276;-65
2022/01/18 10:19:48;;;;;;;;;;;;;;;13.22;29.92;101095.34;4465965;32;35191;-65
2022/01/18 10:22:22;;;;;;;;;;;;;;;13.37;31.62;101106.97;4464059;32;33858;-65
2022/01/18 10:24:50;;;;;;;;;;;;;;;13.29;29.62;101104.81;4463019;32;34124;-65
2022/01/18 10:27:17;;;;;;;;;;;;;;;14.34;28.07;101096.84;4467944;32;33615;-64
2022/01/18 10:29:49;;;;;;;;;;;;;;;13.85;28.86;101099.34;4467484;32;34006;-64
2022/01/18 10:32:26;;;;;;;;;;;;;;;15.08;27.34;101081.75;4467850;32;35019;-64
2022/01/18 10:37:26;;;;;;;;;;;;;;;15.00;27.22;101110.25;4465831;32;33348;-65
2022/01/18 10:39:55;;;;;;;;;;;;;;;14.70;27.10;101087.19;4468100;32;34157;-65
2022/01/18 10:42:29;;;;;;;;;;;;;;;15.30;27.59;101088.28;4467512;32;33895;-65
2022/01/18 10:44:59;;;;;;;;;;;;;;;15.92;25.95;101087.28;4468315;32;34043;-65
2022/01/18 10:47:27;;;;;;;;;;;;;;;17.07;24.44;101087.28;4467399;32;32471;-65
2022/01/18 10:49:54;;;;;;;;;;;;;;;17.84;23.29;101091.84;4466522;32;32905;-66
2022/01/18 10:52:22;;;;;;;;;;;;;;;16.05;24.85;101096.19;4465648;32;33929;-64
2022/01/18 10:54:50;;;;;;;;;;;;;;;17.46;24.02;101099.44;4463848;32;33998;-64
2022/01/18 10:57:22;;;;;;;;;;;;;;;16.50;25.18;101091.78;4468265;32;34116;-65
2022/01/18 11:00:08;;;;;;;;;;;;;;;16.54;24.26;101092.41;4467572;32;34403;-64
2022/01/18 11:02:36;;;;;;;;;;;;;;;12.98;28.86;101103.16;4462922;32;33868;-64
2022/01/18 11:05:15;;;;;;;;;;;;;;;13.37;28.49;101093.53;4466624;32;34080;-64
2022/01/18 11:07:43;;;;;;;;;;;;;;;13.89;28.25;101092.78;4467023;32;33354;-64
2022/01/18 11:10:11;;;;;;;;;;;;;;;13.24;29.57;101099.69;4464879;32;34105;-64
2022/01/18 11:12:51;;;;;;;;;;;;;;;12.76;30.34;101096.44;4462684;32;34407;-64
2022/01/18 11:15:21;;;;;;;;;;;;;;;12.46;30.88;101106.41;4465363;32;33924;-64
2022/01/18 11:17:51;;;;;;;;;;;;;;;11.38;32.21;101106.44;4466770;32;33131;-64
2022/01/18 11:20:20;;;;;;;;;;;;;;;10.64;33.38;101115.84;4467248;32;33979;-71
2022/01/18 11:22:48;;;;;;;;;;;;;;;11.56;32.25;101112.59;4466392;32;34130;-64
2022/01/18 11:25:16;;;;;;;;;;;;;;;11.71;32.85;101109.00;4464464;32;33701;-65
2022/01/18 11:27:48;;;;;;;;;;;;;;;11.51;31.45;101114.66;4465364;32;32719;-64
2022/01/18 11:30:16;;;;;;;;;;;;;;;11.21;32.80;101110.06;4463034;32;34108;-64
2022/01/18 11:32:44;;;;;;;;;;;;;;;12.16;31.77;101117.16;4465043;32;33815;-64
2022/01/18 11:35:18;;;;;;;;;;;;;;;12.45;31.18;101118.09;4464422;32;34160;-63
2022/01/18 11:37:49;;;;;;;;;;;;;;;12.29;31.67;101119.00;4465839;32;33297;-63
2022/01/18 11:40:17;;;;;;;;;;;;;;;11.65;33.20;101109.34;4465555;32;34018;-63
2022/01/18 11:42:46;;;;;;;;;;;;;;;11.26;32.77;101118.69;4467391;32;34236;-64
2022/01/18 11:45:29;;;;;;;;;;;;;;;10.96;34.68;101122.13;4466536;32;34189;-63
2022/01/18 11:48:07;;;;;;;;;;;;;;;10.64;33.86;101139.94;4463480;32;31601;-63
2022/01/18 11:50:40;;;;;;;;;;;;;;;11.05;32.99;101131.50;4464480;32;33641;-63
2022/01/18 11:53:17;;;;;;;;;;;;;;;10.96;34.15;101138.19;4461387;32;36027;-66
2022/01/18 11:55:47;;;;;;;;;;;;;;;10.57;34.78;101132.31;4463925;32;33883;-65
2022/01/18 11:58:14;;;;;;;;;;;;;;;9.40;37.64;101138.09;4464971;32;35733;-65
2022/01/18 12:00:56;;;;;;;;;;;;;;;9.27;36.49;101140.50;4463316;32;33015;-66
2022/01/18 12:03:26;;;;;;;;;;;;;;;9.59;36.39;101135.41;4464314;32;35417;-65
2022/01/18 12:05:54;;;;;;;;;;;;;;;9.37;36.87;101130.22;4463221;32;34205;-66
2022/01/18 12:08:28;;;;;;;;;;;;;;;9.18;37.05;101121.37;4464090;32;33166;-66
2022/01/18 12:10:55;;;;;;;;;;;;;;;9.08;37.59;101112.91;4459776;32;33898;-66
2022/01/18 12:13:24;;;;;;;;;;;;;;;9.08;37.86;101112.91;4464335;32;34030;-66
2022/01/18 12:15:52;;;;;;;;;;;;;;;9.65;36.39;101116.41;4459532;32;34791;-66
2022/01/18 12:18:21;;;;;;;;;;;;;;;8.33;37.24;101110.94;4458242;32;31625;-66
2022/01/18 12:20:49;;;;;;;;;;;;;;;8.85;37.91;101120.19;4461225;32;34169;-67
2022/01/18 12:23:32;;;;;;;;;;;;;;;7.93;38.62;101110.88;4459329;32;34321;-68
2022/01/18 12:26:03;;;;;;;;;;;;;;;8.47;38.12;101111.22;4462291;32;35892;-68
2022/01/18 12:28:56;;;;;;;;;;;;;;;8.08;39.41;101125.34;4465550;32;34619;-70
2022/01/18 12:34:25;;;;;;;;;;;;;;;7.82;40.18;101123.75;4461018;32;35352;-70
2022/01/18 12:36:53;;;;;;;;;;;;;;;8.44;39.23;101127.38;4458075;32;33417;-70
2022/01/18 12:39:20;;;;;;;;;;;;;;;8.70;38.63;101123.56;4456770;32;33236;-69
2022/01/18 12:41:52;;;;;;;;;;;;;;;8.04;38.98;101123.75;4464009;32;36119;-69
2022/01/18 12:44:20;;;;;;;;;;;;;;;8.23;39.69;101133.62;4465577;32;32398;-68
2022/01/18 12:46:55;;;;;;;;;;;;;;;8.50;37.96;101126.25;4461525;32;33228;-69
2022/01/18 12:49:23;;;;;;;;;;;;;;;8.51;38.72;101133.34;4459613;32;34209;-69
2022/01/18 12:52:10;;;;;;;;;;;;;;;9.07;37.77;101151.25;4461125;32;35192;-69
2022/01/18 12:54:39;;;;;;;;;;;;;;;8.97;38.09;101141.94;4461130;32;33545;-67
2022/01/18 12:57:19;;;;;;;;;;;;;;;9.16;37.85;101133.94;4456185;32;34498;-69
2022/01/18 12:59:57;;;;;;;;;;;;;;;8.51;38.71;101142.22;4457728;32;33723;-69
2022/01/18 13:02:25;;;;;;;;;;;;;;;8.40;39.39;101136.47;4463449;32;35064;-69
2022/01/18 13:04:59;;;;;;;;;;;;;;;8.45;38.75;101153.16;4465127;32;34379;-69
2022/01/18 13:07:27;;;;;;;;;;;;;;;8.61;41.01;101156.88;4464298;32;33955;-68
2022/01/18 13:09:55;;;;;;;;;;;;;;;9.04;37.94;101151.41;4465682;32;33535;-68
2022/01/18 13:12:32;;;;;;;;;;;;;;;9.43;37.14;101143.31;4459466;32;35554;-70
2022/01/18 13:15:03;;;;;;;;;;;;;;;7.78;39.26;101132.81;4464611;32;34197;-69
2022/01/18 13:23:34;;;;;;;;;;;;;;;9.57;36.86;101145.34;4448947;32;34065;-70
2022/01/18 13:26:02;;;;;;;;;;;;;;;9.35;37.54;101153.50;4457304;31;34209;-70
2022/01/18 13:28:33;;;;;;;;;;;;;;;8.98;38.88;101163.22;4452213;32;34206;-70
2022/01/18 13:31:14;;;;;;;;;;;;;;;8.49;39.24;101157.41;4450965;32;31662;-69
2022/01/18 13:33:48;;;;;;;;;;;;;;;8.95;38.16;101163.34;4457436;32;33984;-70
2022/01/18 13:36:15;;;;;;;;;;;;;;;9.02;37.96;101167.50;4450890;32;34431;-69
2022/01/18 13:38:42;;;;;;;;;;;;;;;8.74;38.39;101169.69;4459996;32;35199;-69
2022/01/18 13:41:10;;;;;;;;;;;;;;;8.43;38.91;101156.81;4442085;32;33178;-70
2022/01/18 13:43:38;;;;;;;;;;;;;;;8.84;38.84;101157.66;4457268;32;34468;-70
2022/01/18 13:46:05;;;;;;;;;;;;;;;9.09;39.26;101158.25;4450588;32;34483;-70
2022/01/18 13:48:33;;;;;;;;;;;;;;;9.76;38.65;101158.69;4456650;32;32666;-69
2022/01/18 13:51:14;;;;;;;;;;;;;;;9.35;38.67;101155.31;4453265;32;33605;-70
2022/01/18 13:53:42;;;;;;;;;;;;;;;9.14;38.94;101157.19;4454148;32;34215;-69
2022/01/18 13:56:12;;;;;;;;;;;;;;;9.99;36.34;101154.88;4458140;31;34299;-70
2022/01/18 13:58:42;;;;;;;;;;;;;;;9.60;36.98;101163.00;4451847;32;33905;-69
2022/01/18 14:01:14;;;;;;;;;;;;;;;9.06;39.05;101165.56;4454657;32;35403;-70
2022/01/18 14:03:50;;;;;;;;;;;;;;;9.40;38.96;101180.00;4459781;32;33916;-69
2022/01/18 14:06:18;;;;;;;;;;;;;;;9.90;38.29;101174.91;4455618;32;34216;-70
2022/01/18 14:08:49;;;;;;;;;;;;;;;9.82;36.93;101186.91;4457917;32;33911;-69
2022/01/18 14:11:18;;;;;;;;;;;;;;;9.90;36.70;101185.59;4455575;32;34430;-69
2022/01/18 14:13:46;;;;;;;;;;;;;;;10.39;36.00;101172.47;4459746;32;33739;-70